Chapel en le Frith, United Kingdom
Current Conditions -  °F | °C
As of 4:20 AM on Tuesday 21 Oct 2014 (Local Time) from EGCC Reporting Station
Broken Clouds Broken Clouds  
Wind Chill: 54°   Ceiling: 2500
Heat Index: 54°   Visibility: 6mi
Dew Point: 54°   Wind: 22mph
Humidity: 100%   Direction: 190°S
Pressure: 29.38"   Gusts: NA
Location:  53.32°N, 1.91°W
Report Text: EGCC 210320Z 19019KT 9999 FEW014 SCT019 BKN025CB 12/12 Q0995 TEMPO 4000 RA
Loading
Personal Weather Stations






























Interactive Weather Map
Tropical Storm Tracking
New forecast layout! Learn more

10-Day Weather Forecast

Advertisements
Track Severe Weather on mobile